sensor_id;sensor_type;location;lat;lon;timestamp;P1;durP1;ratioP1;P2;durP2;ratioP2
9465;SDS011;4771;48.726;9.006;2023-04-01T00:01:28;2.00;;;1.03;;
9465;SDS011;4771;48.726;9.006;2023-04-01T00:03:55;1.67;;;0.80;;
9465;SDS011;4771;48.726;9.006;2023-04-01T00:06:22;3.17;;;1.20;;
9465;SDS011;4771;48.726;9.006;2023-04-01T00:08:49;3.50;;;1.00;;
9465;SDS011;4771;48.726;9.006;2023-04-01T00:11:16;3.03;;;1.20;;
9465;SDS011;4771;48.726;9.006;2023-04-01T00:13:43;2.13;;;1.00;;
9465;SDS011;4771;48.726;9.006;2023-04-01T00:16:10;5.07;;;1.10;;
9465;SDS011;4771;48.726;9.006;2023-04-01T00:18:38;3.17;;;1.37;;
9465;SDS011;4771;48.726;9.006;2023-04-01T00:21:05;2.23;;;1.20;;
9465;SDS011;4771;48.726;9.006;2023-04-01T00:23:32;2.53;;;1.30;;
9465;SDS011;4771;48.726;9.006;2023-04-01T00:26:00;4.70;;;0.93;;
9465;SDS011;4771;48.726;9.006;2023-04-01T00:28:27;4.70;;;1.23;;
9465;SDS011;4771;48.726;9.006;2023-04-01T00:30:54;3.30;;;1.27;;
9465;SDS011;4771;48.726;9.006;2023-04-01T00:33:21;6.27;;;1.53;;
9465;SDS011;4771;48.726;9.006;2023-04-01T00:35:50;2.67;;;1.07;;
9465;SDS011;4771;48.726;9.006;2023-04-01T00:38:16;3.30;;;1.30;;
9465;SDS011;4771;48.726;9.006;2023-04-01T00:40:44;2.10;;;1.03;;
9465;SDS011;4771;48.726;9.006;2023-04-01T00:43:12;3.93;;;1.20;;
9465;SDS011;4771;48.726;9.006;2023-04-01T00:45:43;3.90;;;1.50;;
9465;SDS011;4771;48.726;9.006;2023-04-01T00:48:11;2.30;;;1.07;;
9465;SDS011;4771;48.726;9.006;2023-04-01T00:50:41;2.53;;;1.30;;
9465;SDS011;4771;48.726;9.006;2023-04-01T00:53:13;4.43;;;1.60;;
9465;SDS011;4771;48.726;9.006;2023-04-01T00:55:41;3.67;;;1.37;;
9465;SDS011;4771;48.726;9.006;2023-04-01T00:58:15;2.50;;;1.10;;
9465;SDS011;4771;48.726;9.006;2023-04-01T01:00:45;4.17;;;1.10;;
9465;SDS011;4771;48.726;9.006;2023-04-01T01:03:13;2.43;;;1.10;;
9465;SDS011;4771;48.726;9.006;2023-04-01T01:05:47;3.13;;;1.30;;
9465;SDS011;4771;48.726;9.006;2023-04-01T01:08:28;2.47;;;1.00;;
9465;SDS011;4771;48.726;9.006;2023-04-01T01:11:03;1.63;;;1.00;;
9465;SDS011;4771;48.726;9.006;2023-04-01T01:13:35;4.87;;;1.10;;
9465;SDS011;4771;48.726;9.006;2023-04-01T01:16:09;5.00;;;1.33;;
9465;SDS011;4771;48.726;9.006;2023-04-01T01:18:42;2.60;;;1.03;;
9465;SDS011;4771;48.726;9.006;2023-04-01T01:24:44;2.43;;;0.93;;
9465;SDS011;4771;48.726;9.006;2023-04-01T01:27:21;2.33;;;1.20;;
9465;SDS011;4771;48.726;9.006;2023-04-01T01:29:57;2.13;;;1.00;;
9465;SDS011;4771;48.726;9.006;2023-04-01T01:32:59;2.20;;;1.10;;
9465;SDS011;4771;48.726;9.006;2023-04-01T01:35:38;7.10;;;1.37;;
9465;SDS011;4771;48.726;9.006;2023-04-01T01:38:10;2.83;;;1.10;;
9465;SDS011;4771;48.726;9.006;2023-04-01T01:40:41;2.03;;;1.03;;
9465;SDS011;4771;48.726;9.006;2023-04-01T01:43:11;1.80;;;0.93;;
9465;SDS011;4771;48.726;9.006;2023-04-01T01:45:43;1.93;;;0.90;;
9465;SDS011;4771;48.726;9.006;2023-04-01T01:48:13;3.40;;;1.30;;
9465;SDS011;4771;48.726;9.006;2023-04-01T01:50:43;2.63;;;0.80;;
9465;SDS011;4771;48.726;9.006;2023-04-01T01:53:12;2.83;;;1.00;;
9465;SDS011;4771;48.726;9.006;2023-04-01T01:55:40;1.90;;;0.80;;
9465;SDS011;4771;48.726;9.006;2023-04-01T01:58:09;4.20;;;1.23;;
9465;SDS011;4771;48.726;9.006;2023-04-01T02:00:40;2.40;;;0.93;;
9465;SDS011;4771;48.726;9.006;2023-04-01T02:03:09;1.00;;;0.80;;
9465;SDS011;4771;48.726;9.006;2023-04-01T02:05:38;1.23;;;0.90;;
9465;SDS011;4771;48.726;9.006;2023-04-01T02:08:09;1.07;;;0.70;;
9465;SDS011;4771;48.726;9.006;2023-04-01T02:10:40;1.13;;;0.60;;
9465;SDS011;4771;48.726;9.006;2023-04-01T02:13:13;0.93;;;0.73;;
9465;SDS011;4771;48.726;9.006;2023-04-01T02:15:46;4.10;;;0.90;;
9465;SDS011;4771;48.726;9.006;2023-04-01T02:18:15;1.67;;;0.90;;
9465;SDS011;4771;48.726;9.006;2023-04-01T02:20:44;2.00;;;0.70;;
9465;SDS011;4771;48.726;9.006;2023-04-01T02:23:13;3.47;;;1.00;;
9465;SDS011;4771;48.726;9.006;2023-04-01T02:25:40;2.50;;;0.70;;
9465;SDS011;4771;48.726;9.006;2023-04-01T02:28:09;2.13;;;0.80;;
9465;SDS011;4771;48.726;9.006;2023-04-01T02:30:38;3.03;;;0.87;;
9465;SDS011;4771;48.726;9.006;2023-04-01T02:33:07;0.97;;;0.70;;
9465;SDS011;4771;48.726;9.006;2023-04-01T02:35:35;1.23;;;0.70;;
9465;SDS011;4771;48.726;9.006;2023-04-01T02:38:02;0.67;;;0.60;;
9465;SDS011;4771;48.726;9.006;2023-04-01T02:40:41;2.60;;;0.87;;
9465;SDS011;4771;48.726;9.006;2023-04-01T02:43:13;3.13;;;0.77;;
9465;SDS011;4771;48.726;9.006;2023-04-01T02:45:41;1.80;;;0.67;;
9465;SDS011;4771;48.726;9.006;2023-04-01T02:48:08;1.80;;;0.67;;
9465;SDS011;4771;48.726;9.006;2023-04-01T02:50:35;1.27;;;0.80;;
9465;SDS011;4771;48.726;9.006;2023-04-01T02:53:02;1.60;;;0.80;;
9465;SDS011;4771;48.726;9.006;2023-04-01T02:55:31;1.07;;;0.60;;
9465;SDS011;4771;48.726;9.006;2023-04-01T02:57:59;1.00;;;0.60;;
9465;SDS011;4771;48.726;9.006;2023-04-01T03:00:26;0.87;;;0.70;;
9465;SDS011;4771;48.726;9.006;2023-04-01T03:02:53;1.17;;;0.80;;
9465;SDS011;4771;48.726;9.006;2023-04-01T03:05:21;1.70;;;0.70;;
9465;SDS011;4771;48.726;9.006;2023-04-01T03:07:48;1.53;;;0.63;;
9465;SDS011;4771;48.726;9.006;2023-04-01T03:10:15;0.63;;;0.60;;
9465;SDS011;4771;48.726;9.006;2023-04-01T03:12:42;1.43;;;0.80;;
9465;SDS011;4771;48.726;9.006;2023-04-01T03:15:11;1.27;;;0.80;;
9465;SDS011;4771;48.726;9.006;2023-04-01T03:17:40;1.40;;;0.70;;
9465;SDS011;4771;48.726;9.006;2023-04-01T03:20:08;0.63;;;0.60;;
9465;SDS011;4771;48.726;9.006;2023-04-01T03:22:36;1.63;;;0.70;;
9465;SDS011;4771;48.726;9.006;2023-04-01T03:25:03;1.50;;;0.90;;
9465;SDS011;4771;48.726;9.006;2023-04-01T03:27:31;1.03;;;0.70;;
9465;SDS011;4771;48.726;9.006;2023-04-01T03:29:57;1.17;;;0.60;;
9465;SDS011;4771;48.726;9.006;2023-04-01T03:32:26;1.23;;;0.60;;
9465;SDS011;4771;48.726;9.006;2023-04-01T03:34:52;1.27;;;0.70;;
9465;SDS011;4771;48.726;9.006;2023-04-01T03:37:19;1.93;;;0.63;;
9465;SDS011;4771;48.726;9.006;2023-04-01T03:39:46;1.73;;;0.80;;
9465;SDS011;4771;48.726;9.006;2023-04-01T03:42:13;2.97;;;1.00;;
9465;SDS011;4771;48.726;9.006;2023-04-01T03:44:40;1.00;;;0.80;;
9465;SDS011;4771;48.726;9.006;2023-04-01T03:47:07;1.57;;;0.93;;
9465;SDS011;4771;48.726;9.006;2023-04-01T03:49:36;1.67;;;0.90;;
9465;SDS011;4771;48.726;9.006;2023-04-01T03:52:03;1.67;;;0.90;;
9465;SDS011;4771;48.726;9.006;2023-04-01T03:54:30;2.97;;;0.77;;
9465;SDS011;4771;48.726;9.006;2023-04-01T03:56:57;1.77;;;0.93;;
9465;SDS011;4771;48.726;9.006;2023-04-01T03:59:24;0.63;;;0.63;;
9465;SDS011;4771;48.726;9.006;2023-04-01T04:01:51;1.50;;;0.83;;
9465;SDS011;4771;48.726;9.006;2023-04-01T04:04:18;2.30;;;0.97;;
9465;SDS011;4771;48.726;9.006;2023-04-01T04:06:46;1.13;;;0.70;;
9465;SDS011;4771;48.726;9.006;2023-04-01T04:09:13;2.57;;;0.83;;
9465;SDS011;4771;48.726;9.006;2023-04-01T04:11:40;1.93;;;0.70;;
9465;SDS011;4771;48.726;9.006;2023-04-01T04:14:07;2.10;;;0.87;;
9465;SDS011;4771;48.726;9.006;2023-04-01T04:16:34;1.43;;;0.80;;
9465;SDS011;4771;48.726;9.006;2023-04-01T04:19:02;1.73;;;0.83;;
9465;SDS011;4771;48.726;9.006;2023-04-01T04:21:29;1.37;;;0.87;;
9465;SDS011;4771;48.726;9.006;2023-04-01T04:23:57;1.50;;;0.83;;
9465;SDS011;4771;48.726;9.006;2023-04-01T04:26:24;3.10;;;1.00;;
9465;SDS011;4771;48.726;9.006;2023-04-01T04:28:51;2.70;;;0.80;;
9465;SDS011;4771;48.726;9.006;2023-04-01T04:31:19;1.30;;;0.90;;
9465;SDS011;4771;48.726;9.006;2023-04-01T04:33:47;1.03;;;0.57;;
9465;SDS011;4771;48.726;9.006;2023-04-01T04:36:14;1.30;;;0.77;;
9465;SDS011;4771;48.726;9.006;2023-04-01T04:38:41;2.20;;;0.70;;
9465;SDS011;4771;48.726;9.006;2023-04-01T04:41:10;1.67;;;0.80;;
9465;SDS011;4771;48.726;9.006;2023-04-01T04:43:37;2.57;;;1.00;;
9465;SDS011;4771;48.726;9.006;2023-04-01T04:46:05;3.83;;;1.10;;
9465;SDS011;4771;48.726;9.006;2023-04-01T04:48:32;1.97;;;1.00;;
9465;SDS011;4771;48.726;9.006;2023-04-01T04:50:59;1.70;;;0.90;;
9465;SDS011;4771;48.726;9.006;2023-04-01T04:53:26;0.80;;;0.80;;
9465;SDS011;4771;48.726;9.006;2023-04-01T04:55:53;2.60;;;1.00;;
9465;SDS011;4771;48.726;9.006;2023-04-01T04:58:21;1.60;;;1.03;;
9465;SDS011;4771;48.726;9.006;2023-04-01T05:00:48;2.60;;;1.10;;
9465;SDS011;4771;48.726;9.006;2023-04-01T05:03:15;2.20;;;0.80;;
9465;SDS011;4771;48.726;9.006;2023-04-01T05:05:47;2.10;;;0.80;;
9465;SDS011;4771;48.726;9.006;2023-04-01T05:08:15;1.20;;;1.10;;
9465;SDS011;4771;48.726;9.006;2023-04-01T05:10:43;2.43;;;1.00;;
9465;SDS011;4771;48.726;9.006;2023-04-01T05:13:10;1.60;;;0.90;;
9465;SDS011;4771;48.726;9.006;2023-04-01T05:15:38;2.40;;;1.07;;
9465;SDS011;4771;48.726;9.006;2023-04-01T05:18:05;4.23;;;1.20;;
9465;SDS011;4771;48.726;9.006;2023-04-01T05:20:31;3.77;;;1.10;;
9465;SDS011;4771;48.726;9.006;2023-04-01T05:22:59;3.87;;;1.17;;
9465;SDS011;4771;48.726;9.006;2023-04-01T05:25:26;3.57;;;1.27;;
9465;SDS011;4771;48.726;9.006;2023-04-01T05:27:53;2.83;;;1.37;;
9465;SDS011;4771;48.726;9.006;2023-04-01T05:30:20;3.13;;;1.13;;
9465;SDS011;4771;48.726;9.006;2023-04-01T05:32:48;4.30;;;1.40;;
9465;SDS011;4771;48.726;9.006;2023-04-01T05:35:15;3.43;;;1.00;;
9465;SDS011;4771;48.726;9.006;2023-04-01T05:37:42;1.40;;;1.10;;
9465;SDS011;4771;48.726;9.006;2023-04-01T05:40:09;2.93;;;1.20;;
9465;SDS011;4771;48.726;9.006;2023-04-01T05:42:37;2.00;;;0.87;;
9465;SDS011;4771;48.726;9.006;2023-04-01T05:45:04;2.03;;;0.93;;
9465;SDS011;4771;48.726;9.006;2023-04-01T05:47:31;2.03;;;1.00;;
9465;SDS011;4771;48.726;9.006;2023-04-01T05:50:00;3.20;;;1.10;;
9465;SDS011;4771;48.726;9.006;2023-04-01T05:52:26;2.17;;;1.10;;
9465;SDS011;4771;48.726;9.006;2023-04-01T05:54:53;1.77;;;1.07;;
9465;SDS011;4771;48.726;9.006;2023-04-01T05:57:20;3.20;;;1.00;;
9465;SDS011;4771;48.726;9.006;2023-04-01T05:59:47;2.43;;;1.00;;
9465;SDS011;4771;48.726;9.006;2023-04-01T06:02:15;2.93;;;1.20;;
9465;SDS011;4771;48.726;9.006;2023-04-01T06:04:44;2.23;;;1.20;;
9465;SDS011;4771;48.726;9.006;2023-04-01T06:07:13;2.47;;;1.43;;
9465;SDS011;4771;48.726;9.006;2023-04-01T06:09:41;2.43;;;1.00;;
9465;SDS011;4771;48.726;9.006;2023-04-01T06:15:11;3.97;;;1.30;;
9465;SDS011;4771;48.726;9.006;2023-04-01T06:17:56;3.17;;;1.13;;
9465;SDS011;4771;48.726;9.006;2023-04-01T06:20:35;1.67;;;1.00;;
9465;SDS011;4771;48.726;9.006;2023-04-01T06:26:17;1.37;;;0.80;;
9465;SDS011;4771;48.726;9.006;2023-04-01T06:34:52;2.40;;;1.17;;
9465;SDS011;4771;48.726;9.006;2023-04-01T06:37:49;1.47;;;0.90;;
9465;SDS011;4771;48.726;9.006;2023-04-01T06:40:37;3.93;;;1.20;;
9465;SDS011;4771;48.726;9.006;2023-04-01T06:43:13;1.30;;;0.77;;
9465;SDS011;4771;48.726;9.006;2023-04-01T06:45:46;3.23;;;1.00;;
9465;SDS011;4771;48.726;9.006;2023-04-01T06:48:27;0.97;;;0.80;;
9465;SDS011;4771;48.726;9.006;2023-04-01T06:51:06;1.90;;;0.83;;
9465;SDS011;4771;48.726;9.006;2023-04-01T06:53:43;1.93;;;0.90;;
9465;SDS011;4771;48.726;9.006;2023-04-01T06:56:20;1.30;;;1.00;;
9465;SDS011;4771;48.726;9.006;2023-04-01T06:58:51;2.03;;;1.00;;
9465;SDS011;4771;48.726;9.006;2023-04-01T07:01:22;3.00;;;1.10;;
9465;SDS011;4771;48.726;9.006;2023-04-01T07:03:55;2.43;;;0.90;;
9465;SDS011;4771;48.726;9.006;2023-04-01T07:06:26;2.00;;;0.90;;
9465;SDS011;4771;48.726;9.006;2023-04-01T07:08:57;1.43;;;0.90;;
9465;SDS011;4771;48.726;9.006;2023-04-01T07:11:30;1.47;;;0.80;;
9465;SDS011;4771;48.726;9.006;2023-04-01T07:13:59;2.03;;;0.73;;
9465;SDS011;4771;48.726;9.006;2023-04-01T07:16:30;3.70;;;1.00;;
9465;SDS011;4771;48.726;9.006;2023-04-01T07:19:01;1.63;;;0.90;;
9465;SDS011;4771;48.726;9.006;2023-04-01T07:21:33;2.90;;;1.20;;
9465;SDS011;4771;48.726;9.006;2023-04-01T07:24:06;3.10;;;1.00;;
9465;SDS011;4771;48.726;9.006;2023-04-01T07:26:42;2.07;;;1.10;;
9465;SDS011;4771;48.726;9.006;2023-04-01T07:29:09;2.77;;;1.00;;
9465;SDS011;4771;48.726;9.006;2023-04-01T07:34:34;1.60;;;0.83;;
9465;SDS011;4771;48.726;9.006;2023-04-01T07:37:10;2.47;;;1.07;;
9465;SDS011;4771;48.726;9.006;2023-04-01T07:39:43;2.57;;;1.13;;
9465;SDS011;4771;48.726;9.006;2023-04-01T07:42:21;2.07;;;0.97;;
9465;SDS011;4771;48.726;9.006;2023-04-01T07:44:54;1.63;;;0.90;;
9465;SDS011;4771;48.726;9.006;2023-04-01T07:47:40;2.77;;;1.17;;
9465;SDS011;4771;48.726;9.006;2023-04-01T07:50:17;2.63;;;1.13;;
9465;SDS011;4771;48.726;9.006;2023-04-01T07:52:53;2.20;;;0.80;;
9465;SDS011;4771;48.726;9.006;2023-04-01T07:55:32;1.17;;;1.00;;
9465;SDS011;4771;48.726;9.006;2023-04-01T07:58:05;2.30;;;0.93;;
9465;SDS011;4771;48.726;9.006;2023-04-01T08:00:39;2.63;;;0.97;;
9465;SDS011;4771;48.726;9.006;2023-04-01T08:03:21;1.90;;;1.00;;
9465;SDS011;4771;48.726;9.006;2023-04-01T08:05:58;2.27;;;0.93;;
9465;SDS011;4771;48.726;9.006;2023-04-01T08:08:32;1.87;;;0.90;;
9465;SDS011;4771;48.726;9.006;2023-04-01T08:11:10;1.67;;;0.87;;
9465;SDS011;4771;48.726;9.006;2023-04-01T08:13:44;1.77;;;0.93;;
9465;SDS011;4771;48.726;9.006;2023-04-01T08:16:20;2.13;;;1.00;;
9465;SDS011;4771;48.726;9.006;2023-04-01T08:18:54;1.27;;;0.93;;
9465;SDS011;4771;48.726;9.006;2023-04-01T08:21:31;1.73;;;0.90;;
9465;SDS011;4771;48.726;9.006;2023-04-01T08:24:05;1.63;;;1.00;;
9465;SDS011;4771;48.726;9.006;2023-04-01T08:26:38;1.97;;;1.00;;
9465;SDS011;4771;48.726;9.006;2023-04-01T08:29:11;1.73;;;0.90;;
9465;SDS011;4771;48.726;9.006;2023-04-01T08:31:43;2.30;;;1.23;;
9465;SDS011;4771;48.726;9.006;2023-04-01T08:34:15;2.13;;;1.00;;
9465;SDS011;4771;48.726;9.006;2023-04-01T08:36:46;1.57;;;1.10;;
9465;SDS011;4771;48.726;9.006;2023-04-01T08:39:19;1.73;;;1.03;;
9465;SDS011;4771;48.726;9.006;2023-04-01T08:47:54;2.07;;;0.87;;
9465;SDS011;4771;48.726;9.006;2023-04-01T08:50:39;1.47;;;0.70;;
9465;SDS011;4771;48.726;9.006;2023-04-01T08:53:21;0.80;;;0.80;;
9465;SDS011;4771;48.726;9.006;2023-04-01T08:56:03;1.73;;;0.90;;
9465;SDS011;4771;48.726;9.006;2023-04-01T08:58:39;1.60;;;0.87;;
9465;SDS011;4771;48.726;9.006;2023-04-01T09:01:20;2.17;;;1.20;;
9465;SDS011;4771;48.726;9.006;2023-04-01T09:07:03;2.37;;;0.87;;
9465;SDS011;4771;48.726;9.006;2023-04-01T09:09:48;1.53;;;0.80;;
9465;SDS011;4771;48.726;9.006;2023-04-01T09:12:38;0.93;;;0.90;;
9465;SDS011;4771;48.726;9.006;2023-04-01T09:15:29;1.50;;;0.73;;
9465;SDS011;4771;48.726;9.006;2023-04-01T09:18:09;1.63;;;0.93;;
9465;SDS011;4771;48.726;9.006;2023-04-01T09:20:44;1.50;;;0.60;;
9465;SDS011;4771;48.726;9.006;2023-04-01T09:23:27;0.83;;;0.80;;
9465;SDS011;4771;48.726;9.006;2023-04-01T09:26:08;1.73;;;0.80;;
9465;SDS011;4771;48.726;9.006;2023-04-01T09:28:48;0.93;;;0.60;;
9465;SDS011;4771;48.726;9.006;2023-04-01T09:31:25;0.67;;;0.60;;
9465;SDS011;4771;48.726;9.006;2023-04-01T09:34:23;0.90;;;0.60;;
9465;SDS011;4771;48.726;9.006;2023-04-01T09:37:08;0.67;;;0.60;;
9465;SDS011;4771;48.726;9.006;2023-04-01T09:39:48;0.87;;;0.70;;
9465;SDS011;4771;48.726;9.006;2023-04-01T09:42:45;0.80;;;0.80;;
9465;SDS011;4771;48.726;9.006;2023-04-01T09:45:39;0.57;;;0.50;;
9465;SDS011;4771;48.726;9.006;2023-04-01T09:48:16;1.03;;;0.80;;
9465;SDS011;4771;48.726;9.006;2023-04-01T09:50:55;0.70;;;0.57;;
9465;SDS011;4771;48.726;9.006;2023-04-01T09:53:33;0.70;;;0.70;;
9465;SDS011;4771;48.726;9.006;2023-04-01T10:09:10;0.77;;;0.50;;
9465;SDS011;4771;48.726;9.006;2023-04-01T10:15:05;1.70;;;0.70;;
9465;SDS011;4771;48.726;9.006;2023-04-01T10:18:05;0.47;;;0.47;;
9465;SDS011;4771;48.726;9.006;2023-04-01T10:21:11;0.40;;;0.40;;
9465;SDS011;4771;48.726;9.006;2023-04-01T10:23:54;0.70;;;0.70;;
9465;SDS011;4771;48.726;9.006;2023-04-01T10:38:47;0.50;;;0.50;;
9465;SDS011;4771;48.726;9.006;2023-04-01T10:41:40;0.53;;;0.50;;
9465;SDS011;4771;48.726;9.006;2023-04-01T10:47:37;0.60;;;0.60;;
9465;SDS011;4771;48.726;9.006;2023-04-01T10:50:26;0.60;;;0.60;;
9465;SDS011;4771;48.726;9.006;2023-04-01T10:53:24;0.40;;;0.40;;
9465;SDS011;4771;48.726;9.006;2023-04-01T10:56:20;0.50;;;0.50;;
9465;SDS011;4771;48.726;9.006;2023-04-01T10:59:20;0.50;;;0.50;;
9465;SDS011;4771;48.726;9.006;2023-04-01T11:05:42;0.43;;;0.43;;
9465;SDS011;4771;48.726;9.006;2023-04-01T11:08:54;0.60;;;0.60;;
9465;SDS011;4771;48.726;9.006;2023-04-01T11:12:04;0.63;;;0.60;;
9465;SDS011;4771;48.726;9.006;2023-04-01T11:17:51;0.83;;;0.70;;
9465;SDS011;4771;48.726;9.006;2023-04-01T11:21:03;0.60;;;0.60;;
9465;SDS011;4771;48.726;9.006;2023-04-01T11:24:07;0.60;;;0.60;;
9465;SDS011;4771;48.726;9.006;2023-04-01T11:26:52;0.70;;;0.60;;
9465;SDS011;4771;48.726;9.006;2023-04-01T11:29:52;0.47;;;0.47;;
9465;SDS011;4771;48.726;9.006;2023-04-01T11:32:39;0.60;;;0.60;;
9465;SDS011;4771;48.726;9.006;2023-04-01T11:35:19;2.67;;;0.60;;
9465;SDS011;4771;48.726;9.006;2023-04-01T11:38:00;0.50;;;0.50;;
9465;SDS011;4771;48.726;9.006;2023-04-01T11:40:37;0.77;;;0.50;;
9465;SDS011;4771;48.726;9.006;2023-04-01T11:43:10;0.37;;;0.37;;
9465;SDS011;4771;48.726;9.006;2023-04-01T11:45:43;1.67;;;0.40;;
9465;SDS011;4771;48.726;9.006;2023-04-01T11:48:25;0.50;;;0.50;;
9465;SDS011;4771;48.726;9.006;2023-04-01T11:51:12;0.50;;;0.50;;
9465;SDS011;4771;48.726;9.006;2023-04-01T11:53:52;0.60;;;0.60;;
9465;SDS011;4771;48.726;9.006;2023-04-01T11:56:31;0.70;;;0.70;;
9465;SDS011;4771;48.726;9.006;2023-04-01T11:59:32;0.40;;;0.40;;
9465;SDS011;4771;48.726;9.006;2023-04-01T12:02:23;0.80;;;0.50;;
9465;SDS011;4771;48.726;9.006;2023-04-01T12:08:00;0.90;;;0.53;;
9465;SDS011;4771;48.726;9.006;2023-04-01T12:10:33;0.50;;;0.50;;
9465;SDS011;4771;48.726;9.006;2023-04-01T12:13:08;0.47;;;0.47;;
9465;SDS011;4771;48.726;9.006;2023-04-01T12:15:44;0.40;;;0.40;;
9465;SDS011;4771;48.726;9.006;2023-04-01T12:18:22;0.67;;;0.67;;
9465;SDS011;4771;48.726;9.006;2023-04-01T12:20:56;0.63;;;0.60;;
9465;SDS011;4771;48.726;9.006;2023-04-01T12:23:36;0.37;;;0.37;;
9465;SDS011;4771;48.726;9.006;2023-04-01T12:26:19;0.40;;;0.40;;
9465;SDS011;4771;48.726;9.006;2023-04-01T12:29:08;0.57;;;0.50;;
9465;SDS011;4771;48.726;9.006;2023-04-01T12:31:49;0.50;;;0.50;;
9465;SDS011;4771;48.726;9.006;2023-04-01T12:37:16;0.57;;;0.57;;
9465;SDS011;4771;48.726;9.006;2023-04-01T12:39:59;0.50;;;0.50;;
9465;SDS011;4771;48.726;9.006;2023-04-01T12:42:56;0.60;;;0.60;;
9465;SDS011;4771;48.726;9.006;2023-04-01T12:45:31;1.23;;;0.57;;
9465;SDS011;4771;48.726;9.006;2023-04-01T12:48:05;0.73;;;0.70;;
9465;SDS011;4771;48.726;9.006;2023-04-01T12:50:49;0.90;;;0.57;;
9465;SDS011;4771;48.726;9.006;2023-04-01T12:56:23;0.50;;;0.50;;
9465;SDS011;4771;48.726;9.006;2023-04-01T12:59:17;0.60;;;0.60;;
9465;SDS011;4771;48.726;9.006;2023-04-01T13:01:58;0.40;;;0.40;;
9465;SDS011;4771;48.726;9.006;2023-04-01T13:04:36;0.40;;;0.40;;
9465;SDS011;4771;48.726;9.006;2023-04-01T13:07:21;0.60;;;0.60;;
9465;SDS011;4771;48.726;9.006;2023-04-01T13:09:57;3.10;;;2.13;;
9465;SDS011;4771;48.726;9.006;2023-04-01T13:12:35;0.60;;;0.60;;
9465;SDS011;4771;48.726;9.006;2023-04-01T13:15:13;0.60;;;0.60;;
9465;SDS011;4771;48.726;9.006;2023-04-01T13:17:50;0.30;;;0.30;;
9465;SDS011;4771;48.726;9.006;2023-04-01T13:20:26;1.60;;;0.60;;
9465;SDS011;4771;48.726;9.006;2023-04-01T13:23:11;0.53;;;0.53;;
9465;SDS011;4771;48.726;9.006;2023-04-01T13:25:49;0.60;;;0.53;;
9465;SDS011;4771;48.726;9.006;2023-04-01T13:28:21;1.53;;;0.60;;
9465;SDS011;4771;48.726;9.006;2023-04-01T13:30:53;0.70;;;0.50;;
9465;SDS011;4771;48.726;9.006;2023-04-01T13:33:26;0.53;;;0.47;;
9465;SDS011;4771;48.726;9.006;2023-04-01T13:36:03;0.43;;;0.43;;
9465;SDS011;4771;48.726;9.006;2023-04-01T13:39:01;1.17;;;1.07;;
9465;SDS011;4771;48.726;9.006;2023-04-01T13:41:44;1.27;;;0.60;;
9465;SDS011;4771;48.726;9.006;2023-04-01T13:44:26;2.27;;;0.60;;
9465;SDS011;4771;48.726;9.006;2023-04-01T13:47:11;0.60;;;0.60;;
9465;SDS011;4771;48.726;9.006;2023-04-01T13:50:05;0.50;;;0.50;;
9465;SDS011;4771;48.726;9.006;2023-04-01T13:52:55;0.37;;;0.37;;
9465;SDS011;4771;48.726;9.006;2023-04-01T13:55:39;0.50;;;0.50;;
9465;SDS011;4771;48.726;9.006;2023-04-01T14:01:23;0.53;;;0.53;;
9465;SDS011;4771;48.726;9.006;2023-04-01T14:04:03;0.33;;;0.33;;
9465;SDS011;4771;48.726;9.006;2023-04-01T14:07:04;0.50;;;0.50;;
9465;SDS011;4771;48.726;9.006;2023-04-01T14:09:44;0.43;;;0.43;;
9465;SDS011;4771;48.726;9.006;2023-04-01T14:12:25;0.40;;;0.40;;
9465;SDS011;4771;48.726;9.006;2023-04-01T14:15:07;0.53;;;0.53;;
9465;SDS011;4771;48.726;9.006;2023-04-01T14:17:58;0.50;;;0.50;;
9465;SDS011;4771;48.726;9.006;2023-04-01T14:20:38;0.50;;;0.50;;
9465;SDS011;4771;48.726;9.006;2023-04-01T14:23:16;0.50;;;0.50;;
9465;SDS011;4771;48.726;9.006;2023-04-01T14:28:51;0.33;;;0.30;;
9465;SDS011;4771;48.726;9.006;2023-04-01T14:31:42;0.30;;;0.30;;
9465;SDS011;4771;48.726;9.006;2023-04-01T14:34:21;0.40;;;0.40;;
9465;SDS011;4771;48.726;9.006;2023-04-01T14:37:10;0.40;;;0.40;;
9465;SDS011;4771;48.726;9.006;2023-04-01T14:39:55;0.60;;;0.60;;
9465;SDS011;4771;48.726;9.006;2023-04-01T14:42:37;0.60;;;0.60;;
9465;SDS011;4771;48.726;9.006;2023-04-01T14:45:23;0.47;;;0.47;;
9465;SDS011;4771;48.726;9.006;2023-04-01T14:48:17;0.47;;;0.47;;
9465;SDS011;4771;48.726;9.006;2023-04-01T14:50:51;0.53;;;0.40;;
9465;SDS011;4771;48.726;9.006;2023-04-01T14:53:26;0.47;;;0.40;;
9465;SDS011;4771;48.726;9.006;2023-04-01T14:55:55;0.50;;;0.50;;
9465;SDS011;4771;48.726;9.006;2023-04-01T14:58:40;0.40;;;0.40;;
9465;SDS011;4771;48.726;9.006;2023-04-01T15:01:13;0.53;;;0.53;;
9465;SDS011;4771;48.726;9.006;2023-04-01T15:04:03;0.57;;;0.57;;
9465;SDS011;4771;48.726;9.006;2023-04-01T15:06:55;0.47;;;0.47;;
9465;SDS011;4771;48.726;9.006;2023-04-01T15:09:29;0.30;;;0.30;;
9465;SDS011;4771;48.726;9.006;2023-04-01T15:12:11;0.60;;;0.60;;
9465;SDS011;4771;48.726;9.006;2023-04-01T15:14:53;0.50;;;0.50;;
9465;SDS011;4771;48.726;9.006;2023-04-01T15:17:33;0.93;;;0.83;;
9465;SDS011;4771;48.726;9.006;2023-04-01T15:20:16;0.97;;;0.90;;
9465;SDS011;4771;48.726;9.006;2023-04-01T15:22:54;0.70;;;0.70;;
9465;SDS011;4771;48.726;9.006;2023-04-01T15:25:38;0.80;;;0.80;;
9465;SDS011;4771;48.726;9.006;2023-04-01T15:28:17;0.43;;;0.43;;
9465;SDS011;4771;48.726;9.006;2023-04-01T15:30:56;0.53;;;0.53;;
9465;SDS011;4771;48.726;9.006;2023-04-01T15:33:41;0.60;;;0.60;;
9465;SDS011;4771;48.726;9.006;2023-04-01T15:36:24;0.57;;;0.43;;
9465;SDS011;4771;48.726;9.006;2023-04-01T15:39:00;0.40;;;0.40;;
9465;SDS011;4771;48.726;9.006;2023-04-01T15:41:39;0.70;;;0.70;;
9465;SDS011;4771;48.726;9.006;2023-04-01T15:44:26;0.50;;;0.50;;
9465;SDS011;4771;48.726;9.006;2023-04-01T15:47:25;0.77;;;0.53;;
9465;SDS011;4771;48.726;9.006;2023-04-01T15:50:23;0.50;;;0.50;;
9465;SDS011;4771;48.726;9.006;2023-04-01T15:53:15;1.10;;;0.70;;
9465;SDS011;4771;48.726;9.006;2023-04-01T15:55:56;0.50;;;0.50;;
9465;SDS011;4771;48.726;9.006;2023-04-01T15:58:32;0.80;;;0.80;;
9465;SDS011;4771;48.726;9.006;2023-04-01T16:01:10;0.53;;;0.50;;
9465;SDS011;4771;48.726;9.006;2023-04-01T16:03:44;0.40;;;0.40;;
9465;SDS011;4771;48.726;9.006;2023-04-01T16:06:24;0.57;;;0.57;;
9465;SDS011;4771;48.726;9.006;2023-04-01T16:09:06;0.40;;;0.40;;
9465;SDS011;4771;48.726;9.006;2023-04-01T16:12:07;0.70;;;0.70;;
9465;SDS011;4771;48.726;9.006;2023-04-01T16:14:44;0.50;;;0.50;;
9465;SDS011;4771;48.726;9.006;2023-04-01T16:17:25;0.60;;;0.60;;
9465;SDS011;4771;48.726;9.006;2023-04-01T16:20:03;0.40;;;0.40;;
9465;SDS011;4771;48.726;9.006;2023-04-01T16:22:46;0.93;;;0.67;;
9465;SDS011;4771;48.726;9.006;2023-04-01T16:25:32;0.70;;;0.70;;
9465;SDS011;4771;48.726;9.006;2023-04-01T16:28:14;0.73;;;0.73;;
9465;SDS011;4771;48.726;9.006;2023-04-01T16:30:48;0.60;;;0.60;;
9465;SDS011;4771;48.726;9.006;2023-04-01T16:33:22;1.60;;;0.90;;
9465;SDS011;4771;48.726;9.006;2023-04-01T16:35:58;1.60;;;0.97;;
9465;SDS011;4771;48.726;9.006;2023-04-01T16:38:36;1.40;;;1.30;;
9465;SDS011;4771;48.726;9.006;2023-04-01T16:41:10;1.17;;;1.00;;
9465;SDS011;4771;48.726;9.006;2023-04-01T16:43:42;1.47;;;1.30;;
9465;SDS011;4771;48.726;9.006;2023-04-01T16:46:26;1.87;;;1.10;;
9465;SDS011;4771;48.726;9.006;2023-04-01T16:49:01;1.03;;;0.93;;
9465;SDS011;4771;48.726;9.006;2023-04-01T16:51:41;2.33;;;0.93;;
9465;SDS011;4771;48.726;9.006;2023-04-01T16:54:16;1.07;;;0.90;;
9465;SDS011;4771;48.726;9.006;2023-04-01T16:56:55;1.37;;;0.80;;
9465;SDS011;4771;48.726;9.006;2023-04-01T16:59:29;1.63;;;0.83;;
9465;SDS011;4771;48.726;9.006;2023-04-01T17:02:02;1.67;;;1.00;;
9465;SDS011;4771;48.726;9.006;2023-04-01T17:04:36;1.00;;;0.80;;
9465;SDS011;4771;48.726;9.006;2023-04-01T17:07:15;2.83;;;2.03;;
9465;SDS011;4771;48.726;9.006;2023-04-01T17:10:02;1.67;;;1.17;;
9465;SDS011;4771;48.726;9.006;2023-04-01T17:12:43;2.07;;;1.40;;
9465;SDS011;4771;48.726;9.006;2023-04-01T17:15:17;2.43;;;1.60;;
9465;SDS011;4771;48.726;9.006;2023-04-01T17:17:54;2.17;;;1.23;;
9465;SDS011;4771;48.726;9.006;2023-04-01T17:20:32;1.43;;;1.20;;
9465;SDS011;4771;48.726;9.006;2023-04-01T17:23:10;3.17;;;1.50;;
9465;SDS011;4771;48.726;9.006;2023-04-01T17:25:48;2.60;;;1.47;;
9465;SDS011;4771;48.726;9.006;2023-04-01T17:28:34;2.20;;;1.07;;
9465;SDS011;4771;48.726;9.006;2023-04-01T17:31:11;2.47;;;1.20;;